Time;durP1;ratioP1;P1;durP2;ratioP2;P2;SDS_P1;SDS_P2;PMS_P1;PMS_P2;Temp;Humidity;BMP_temperature;BMP_pressure;BME280_temperature;BME280_humidity;BME280_pressure;Samples;Min_cycle;Max_cycle;Signal;HPM_P1;HPM_P2
2021/06/23 00:00:56;;;;;;;7.22;2.60;;;;;;;16.59;95.29;98733.75;4972251;28;20027;-65
2021/06/23 00:03:22;;;;;;;8.93;2.70;;;;;;;16.77;95.14;98770.16;4982753;28;20404;-65
2021/06/23 00:05:48;;;;;;;10.57;2.40;;;;;;;16.98;94.64;98779.59;4986925;28;20030;-65
2021/06/23 00:08:13;;;;;;;6.18;2.28;;;;;;;17.17;92.98;98786.47;4987792;28;20026;-65
2021/06/23 00:10:39;;;;;;;6.10;2.22;;;;;;;17.13;91.87;98782.56;4988731;28;20019;-66
2021/06/23 00:13:05;;;;;;;9.32;2.45;;;;;;;17.14;92.19;98786.16;4988086;28;20620;-65
2021/06/23 00:15:31;;;;;;;2.92;2.00;;;;;;;17.29;91.81;98802.81;4985566;28;20380;-66
2021/06/23 00:17:56;;;;;;;4.85;2.10;;;;;;;17.43;90.87;98808.81;4985849;28;20026;-66
2021/06/23 00:20:22;;;;;;;3.45;2.38;;;;;;;17.33;90.96;98812.19;4988852;28;20045;-64
2021/06/23 00:22:47;;;;;;;7.10;2.80;;;;;;;17.34;90.73;98811.09;4988076;28;20041;-64
2021/06/23 00:25:13;;;;;;;8.73;2.63;;;;;;;17.41;90.50;98806.31;4987479;28;20462;-65
2021/06/23 00:27:38;;;;;;;5.05;2.60;;;;;;;17.57;89.76;98807.38;4988629;28;20022;-65
2021/06/23 00:30:05;;;;;;;5.35;2.67;;;;;;;17.50;89.66;98806.72;4988974;28;20034;-65
2021/06/23 00:32:33;;;;;;;3.88;2.90;;;;;;;17.50;90.26;98807.56;4988267;28;20030;-67
2021/06/23 00:34:59;;;;;;;8.90;2.90;;;;;;;17.41;90.41;98786.34;4985320;28;20061;-65
2021/06/23 00:37:24;;;;;;;7.72;3.58;;;;;;;17.46;90.55;98806.38;4969056;28;20520;-64
2021/06/23 00:39:49;;;;;;;5.45;3.25;;;;;;;17.38;91.22;98808.72;4982685;28;20041;-65
2021/06/23 00:42:15;;;;;;;7.10;3.65;;;;;;;17.14;92.50;98795.19;4988258;28;20030;-65
2021/06/23 00:44:40;;;;;;;5.78;3.65;;;;;;;17.24;92.97;98819.16;4987380;28;20484;-64
2021/06/23 00:47:07;;;;;;;5.38;3.45;;;;;;;17.21;93.10;98823.22;4988542;28;20053;-65
2021/06/23 00:49:33;;;;;;;5.75;3.70;;;;;;;17.21;93.98;98819.63;4988407;28;20030;-65
2021/06/23 00:52:00;;;;;;;6.78;3.83;;;;;;;17.17;94.33;98813.81;4988072;28;20057;-65
2021/06/23 00:54:26;;;;;;;6.35;3.30;;;;;;;17.24;94.38;98809.03;4986951;28;20041;-63
2021/06/23 00:56:51;;;;;;;6.40;3.45;;;;;;;17.22;93.80;98808.44;4985838;28;20030;-65
2021/06/23 00:59:17;;;;;;;6.97;3.05;;;;;;;17.20;94.61;98807.84;4987463;28;20384;-65
2021/06/23 01:01:43;;;;;;;6.80;3.13;;;;;;;17.11;94.81;98792.94;4987232;28;20403;-65
2021/06/23 01:04:09;;;;;;;5.90;2.47;;;;;;;17.04;95.88;98786.78;4987045;28;20061;-64
2021/06/23 01:06:34;;;;;;;10.80;3.35;;;;;;;16.94;96.13;98781.13;4986545;28;20022;-64
2021/06/23 01:09:03;;;;;;;4.60;3.22;;;;;;;16.97;96.48;98786.94;4986552;28;20030;-66
2021/06/23 01:11:29;;;;;;;6.70;3.20;;;;;;;16.95;96.95;98789.09;4988383;28;20026;-66
2021/06/23 01:14:03;;;;;;;8.45;3.00;;;;;;;16.92;96.96;98789.56;4986782;28;20030;-65
2021/06/23 01:16:31;;;;;;;8.98;4.03;;;;;;;16.95;96.84;98796.44;4991394;28;20027;-66
2021/06/23 01:18:58;;;;;;;14.25;3.78;;;;;;;16.94;96.79;98797.53;5000312;28;20065;-65
2021/06/23 01:21:26;;;;;;;10.73;3.65;;;;;;;16.94;96.47;98800.28;4990099;28;20074;-65
2021/06/23 01:23:53;;;;;;;12.05;3.75;;;;;;;16.98;96.13;98793.25;4990777;28;20030;-66
2021/06/23 01:26:18;;;;;;;13.00;3.78;;;;;;;17.04;96.47;98792.25;4989996;28;20037;-66
2021/06/23 01:28:43;;;;;;;8.02;3.85;;;;;;;17.06;96.96;98790.94;4990832;28;20188;-65
2021/06/23 01:31:08;;;;;;;8.43;3.85;;;;;;;17.09;96.78;98792.34;4990776;28;20387;-65
2021/06/23 01:33:35;;;;;;;7.65;3.60;;;;;;;17.06;97.60;98796.41;4988960;28;20044;-65
2021/06/23 01:36:00;;;;;;;7.43;2.60;;;;;;;16.95;96.95;98785.53;4989401;28;20057;-65
2021/06/23 01:38:25;;;;;;;14.18;3.80;;;;;;;16.90;97.51;98783.56;4990772;28;20480;-65
2021/06/23 01:40:52;;;;;;;8.98;3.47;;;;;;;17.00;98.23;98791.09;4990260;28;20610;-65
2021/06/23 01:43:18;;;;;;;9.50;3.55;;;;;;;16.97;98.09;98788.84;4988996;28;20030;-64
2021/06/23 01:45:46;;;;;;;10.38;3.28;;;;;;;16.97;98.13;98789.66;4990728;28;20049;-66
2021/06/23 01:48:18;;;;;;;13.00;3.07;;;;;;;16.92;98.08;98770.44;4991148;28;20037;-65
2021/06/23 01:50:51;;;;;;;11.77;3.22;;;;;;;16.91;98.89;98777.00;4990995;28;20042;-66
2021/06/23 01:53:16;;;;;;;14.40;3.50;;;;;;;16.90;98.53;98774.50;4988709;28;20492;-65
2021/06/23 01:55:41;;;;;;;10.95;3.72;;;;;;;16.97;98.69;98783.38;4989016;28;20032;-65
2021/06/23 01:58:09;;;;;;;10.07;3.42;;;;;;;16.82;98.78;98767.53;4990788;28;20022;-65
2021/06/23 02:00:46;;;;;;;8.35;4.15;;;;;;;17.07;99.11;98791.75;4990829;28;20067;-65
2021/06/23 02:03:18;;;;;;;11.93;3.42;;;;;;;17.02;98.97;98778.00;4989431;28;20509;-65
2021/06/23 02:06:01;;;;;;;10.00;3.20;;;;;;;16.99;99.23;98779.31;4990800;28;20026;-65
2021/06/23 02:08:36;;;;;;;9.30;2.85;;;;;;;16.96;98.97;98779.00;4991474;28;20495;-65
2021/06/23 02:11:13;;;;;;;8.07;3.53;;;;;;;16.84;98.96;98760.75;4991122;28;20085;-65
2021/06/23 02:14:05;;;;;;;7.45;4.10;;;;;;;16.84;99.60;98774.41;4990007;28;20054;-64
2021/06/23 02:16:33;;;;;;;14.13;3.75;;;;;;;16.70;99.49;98759.34;4990382;28;20388;-65
2021/06/23 02:19:02;;;;;;;8.75;3.55;;;;;;;16.74;99.99;98765.16;4990501;28;20650;-65
2021/06/23 02:21:30;;;;;;;10.60;3.90;;;;;;;16.65;100.00;98760.09;4990010;28;20033;-65
2021/06/23 02:23:55;;;;;;;6.28;3.60;;;;;;;16.58;100.00;98750.38;4989044;28;20467;-65
2021/06/23 02:26:21;;;;;;;15.68;3.70;;;;;;;16.59;99.96;98769.25;4988853;28;20026;-64
2021/06/23 02:28:46;;;;;;;7.90;3.67;;;;;;;16.55;100.00;98761.78;4990497;28;20080;-66
2021/06/23 02:31:12;;;;;;;10.18;3.88;;;;;;;16.46;100.00;98753.16;4988922;28;20030;-66
2021/06/23 02:33:40;;;;;;;10.73;3.83;;;;;;;16.39;100.00;98750.56;4988939;28;20194;-66
2021/06/23 02:36:05;;;;;;;9.73;3.60;;;;;;;16.34;100.00;98758.66;4989536;28;20077;-65
2021/06/23 02:38:31;;;;;;;9.88;4.10;;;;;;;16.28;100.00;98756.06;4989923;28;20038;-65
2021/06/23 02:40:57;;;;;;;8.23;4.72;;;;;;;16.26;100.00;98758.22;4989743;28;20073;-66
2021/06/23 02:43:22;;;;;;;10.27;4.68;;;;;;;16.18;100.00;98752.03;4988342;28;20049;-66
2021/06/23 02:45:49;;;;;;;9.95;5.13;;;;;;;16.15;100.00;98759.91;4989590;28;20034;-65
2021/06/23 02:48:14;;;;;;;7.72;5.55;;;;;;;16.02;100.00;98741.06;4989887;28;20037;-65
2021/06/23 02:50:53;;;;;;;10.82;5.72;;;;;;;16.22;100.00;98752.41;4990902;28;20030;-65
2021/06/23 02:53:18;;;;;;;8.40;5.32;;;;;;;16.23;100.00;98759.53;4986986;28;20037;-65
2021/06/23 02:55:44;;;;;;;10.98;5.90;;;;;;;16.17;100.00;98757.75;4990544;28;20038;-66
2021/06/23 02:58:11;;;;;;;8.13;5.70;;;;;;;16.13;100.00;98764.75;4989583;28;20372;-65
2021/06/23 03:00:37;;;;;;;10.95;5.65;;;;;;;16.16;100.00;98769.72;4988980;28;20448;-67
2021/06/23 03:03:03;;;;;;;19.67;6.88;;;;;;;16.04;100.00;98749.84;4986369;28;20045;-66
2021/06/23 03:05:29;;;;;;;17.80;6.10;;;;;;;16.12;100.00;98768.56;4978197;28;20030;-65
2021/06/23 03:07:54;;;;;;;8.10;5.45;;;;;;;16.22;100.00;98771.53;4989432;28;20089;-65
2021/06/23 03:10:19;;;;;;;20.27;6.10;;;;;;;16.26;100.00;98774.59;4986569;28;20037;-66
2021/06/23 03:12:45;;;;;;;9.40;5.13;;;;;;;16.26;100.00;98778.13;4989902;28;20023;-66
2021/06/23 03:15:10;;;;;;;8.23;4.80;;;;;;;16.33;100.00;98781.56;4988734;28;20026;-65
2021/06/23 03:17:36;;;;;;;12.82;4.35;;;;;;;16.34;100.00;98793.31;4988876;28;20022;-64
2021/06/23 03:20:09;;;;;;;8.88;4.63;;;;;;;16.32;100.00;98795.44;4990313;28;20049;-67
2021/06/23 03:22:35;;;;;;;11.18;4.40;;;;;;;16.34;100.00;98793.31;4988939;28;20034;-67
2021/06/23 03:25:00;;;;;;;6.10;4.20;;;;;;;16.25;100.00;98775.66;4988127;28;20061;-64
2021/06/23 03:27:25;;;;;;;12.95;5.18;;;;;;;16.35;100.00;98798.56;4987860;28;20029;-65
2021/06/23 03:29:51;;;;;;;15.95;5.07;;;;;;;16.34;100.00;98798.78;4989607;28;20050;-65
2021/06/23 03:32:16;;;;;;;9.23;5.35;;;;;;;16.17;100.00;98794.06;4988162;28;20042;-65
2021/06/23 03:34:41;;;;;;;8.63;5.35;;;;;;;16.09;100.00;98790.88;4982465;28;20040;-70
2021/06/23 03:37:08;;;;;;;7.60;5.60;;;;;;;16.23;100.00;98814.13;4985783;28;20030;-70
2021/06/23 03:39:34;;;;;;;10.40;5.22;;;;;;;16.20;100.00;98825.53;4986007;28;20038;-69
2021/06/23 03:41:59;;;;;;;11.95;5.85;;;;;;;16.25;100.00;98836.56;4988096;28;20145;-69
2021/06/23 03:44:25;;;;;;;11.70;5.22;;;;;;;16.33;100.00;98830.72;4987888;28;20096;-69
2021/06/23 03:46:52;;;;;;;10.48;5.20;;;;;;;16.19;100.00;98804.72;4989132;28;20026;-72
2021/06/23 03:49:17;;;;;;;10.73;5.65;;;;;;;16.38;100.00;98830.84;4988698;28;20190;-73
2021/06/23 03:51:43;;;;;;;9.32;7.00;;;;;;;16.42;100.00;98833.91;4988859;28;20054;-73
2021/06/23 03:54:08;;;;;;;10.30;6.65;;;;;;;16.35;100.00;98806.75;4984681;28;20036;-73
2021/06/23 03:56:33;;;;;;;9.52;5.45;;;;;;;16.43;100.00;98814.56;4988993;28;20022;-72
2021/06/23 03:58:59;;;;;;;7.22;6.00;;;;;;;16.46;100.00;98809.69;4986265;28;20038;-71
2021/06/23 04:01:24;;;;;;;9.85;5.70;;;;;;;16.42;100.00;98790.22;4986509;28;20380;-71
2021/06/23 04:03:50;;;;;;;10.70;5.93;;;;;;;16.48;100.00;98805.66;4986399;28;20036;-70
2021/06/23 04:06:15;;;;;;;10.05;4.68;;;;;;;16.64;100.00;98818.53;4986254;28;20042;-69
2021/06/23 04:08:41;;;;;;;8.10;5.40;;;;;;;16.71;100.00;98798.44;4989472;28;20030;-72
2021/06/23 04:11:06;;;;;;;6.53;4.80;;;;;;;16.89;99.74;98794.72;4989065;28;20456;-70
2021/06/23 04:13:31;;;;;;;11.13;4.57;;;;;;;16.74;98.64;98774.19;4989346;28;20602;-75
2021/06/23 04:15:57;;;;;;;11.93;4.95;;;;;;;16.90;98.80;98780.81;4989713;28;20113;-71
2021/06/23 04:18:22;;;;;;;11.88;4.78;;;;;;;16.86;98.48;98780.47;4988337;28;20027;-72
2021/06/23 04:20:47;;;;;;;8.70;4.22;;;;;;;16.86;98.73;98785.91;4988227;28;20451;-70
2021/06/23 04:23:13;;;;;;;9.60;4.45;;;;;;;16.94;98.26;98809.28;4989031;28;20030;-70
2021/06/23 04:25:38;;;;;;;11.38;4.22;;;;;;;16.89;98.11;98814.66;4988633;28;20443;-71
2021/06/23 04:28:04;;;;;;;7.85;3.85;;;;;;;16.85;98.41;98816.25;4987883;28;20400;-66
2021/06/23 04:30:29;;;;;;;15.23;4.25;;;;;;;16.93;98.67;98815.03;4988164;28;20112;-65
2021/06/23 04:32:55;;;;;;;9.15;4.05;;;;;;;16.98;98.56;98823.31;4988993;28;20037;-68
2021/06/23 04:35:20;;;;;;;5.70;4.10;;;;;;;17.00;97.99;98821.16;4987802;28;20026;-68
2021/06/23 04:37:46;;;;;;;9.52;3.35;;;;;;;17.04;97.82;98808.66;4988538;28;20041;-65
2021/06/23 04:40:15;;;;;;;9.27;4.28;;;;;;;17.28;97.09;98815.66;4986641;28;20041;-66
2021/06/23 04:42:41;;;;;;;5.43;3.17;;;;;;;17.52;96.51;98823.72;4984539;28;20066;-65
2021/06/23 04:45:10;;;;;;;11.40;3.63;;;;;;;17.58;94.73;98813.69;4983116;28;20038;-66
2021/06/23 04:47:35;;;;;;;8.07;3.30;;;;;;;17.88;93.95;98822.41;4984473;28;20034;-67
2021/06/23 04:50:01;;;;;;;9.05;3.42;;;;;;;18.00;92.99;98818.75;4989006;28;20407;-66
2021/06/23 04:52:27;;;;;;;8.27;3.53;;;;;;;18.02;89.83;98806.47;4991142;28;20791;-67
2021/06/23 04:54:52;;;;;;;6.80;3.05;;;;;;;18.36;89.79;98828.28;4990928;28;20034;-67
2021/06/23 04:57:18;;;;;;;5.65;2.92;;;;;;;18.59;88.33;98829.97;4976364;28;20026;-69
2021/06/23 04:59:44;;;;;;;11.40;3.08;;;;;;;18.50;88.14;98809.59;4991763;28;20076;-73
2021/06/23 05:02:09;;;;;;;7.40;3.05;;;;;;;18.51;87.70;98806.56;4993101;28;20054;-73
2021/06/23 05:04:35;;;;;;;11.88;2.97;;;;;;;18.77;87.19;98823.34;4992256;28;20542;-69
2021/06/23 05:07:07;;;;;;;6.38;3.35;;;;;;;18.73;86.04;98803.84;4991378;28;20667;-76
2021/06/23 05:09:32;;;;;;;10.10;2.75;;;;;;;18.91;85.33;98827.34;4992847;28;20037;-72
2021/06/23 05:11:57;;;;;;;8.27;3.15;;;;;;;18.87;86.56;98848.16;4992977;28;20022;-77
2021/06/23 05:14:23;;;;;;;7.15;3.40;;;;;;;18.77;87.48;98834.31;4989196;28;20026;-73
2021/06/23 05:16:50;;;;;;;7.43;3.47;;;;;;;18.61;88.10;98830.53;4987710;28;20477;-74
2021/06/23 05:19:17;;;;;;;8.85;2.90;;;;;;;18.99;86.55;98848.84;4993648;28;20415;-73
2021/06/23 05:21:42;;;;;;;3.70;2.97;;;;;;;18.79;85.51;98812.97;4993813;28;20389;-66
2021/06/23 05:24:08;;;;;;;4.30;2.95;;;;;;;18.72;85.92;98829.56;4991134;28;20034;-77
2021/06/23 05:26:33;;;;;;;4.03;3.00;;;;;;;18.99;85.77;98848.00;4989133;28;20027;-68
2021/06/23 05:28:58;;;;;;;5.57;2.92;;;;;;;19.22;83.89;98828.50;4993264;28;20042;-73
2021/06/23 05:31:24;;;;;;;5.97;2.55;;;;;;;19.21;83.39;98824.09;4993355;28;20396;-69
2021/06/23 05:33:49;;;;;;;5.13;2.90;;;;;;;19.07;84.96;98841.22;4993235;28;20507;-71
2021/06/23 05:36:15;;;;;;;4.35;3.00;;;;;;;19.31;83.80;98859.06;4990521;28;20117;-67
2021/06/23 05:38:40;;;;;;;7.45;3.25;;;;;;;19.38;82.74;98853.34;4990607;28;20114;-67
2021/06/23 05:41:05;;;;;;;4.05;2.88;;;;;;;19.74;80.99;98845.47;4995518;28;20037;-80
2021/06/23 05:43:31;;;;;;;4.13;2.90;;;;;;;19.90;81.43;98850.81;4987817;28;20022;-70
2021/06/23 05:45:56;;;;;;;5.47;3.30;;;;;;;19.84;79.75;98848.28;4988428;28;20487;-74
2021/06/23 05:48:22;;;;;;;7.40;3.28;;;;;;;20.10;79.04;98855.63;4993122;28;20552;-73
2021/06/23 05:50:47;;;;;;;5.05;2.90;;;;;;;20.38;77.89;98853.56;4992751;28;20030;-72
2021/06/23 05:53:12;;;;;;;4.32;2.92;;;;;;;20.95;75.52;98850.03;4991474;28;20396;-71
2021/06/23 05:55:40;;;;;;;4.85;2.70;;;;;;;21.25;73.44;98851.22;4990663;28;20029;-68
2021/06/23 05:58:05;;;;;;;3.83;2.65;;;;;;;21.88;70.71;98867.53;4989627;28;20494;-65
2021/06/23 06:00:31;;;;;;;6.50;2.55;;;;;;;22.25;69.91;98880.22;4990066;28;20039;-71
2021/06/23 06:02:56;;;;;;;2.90;2.17;;;;;;;22.05;70.08;98872.75;4988407;28;20033;-71
2021/06/23 06:05:21;;;;;;;2.85;2.00;;;;;;;22.34;70.23;98845.44;4988944;28;20037;-71
2021/06/23 06:07:48;;;;;;;7.82;2.15;;;;;;;23.05;69.59;98876.66;4990191;28;20030;-72
2021/06/23 06:10:14;;;;;;;3.05;1.95;;;;;;;23.09;70.06;98866.72;4989256;28;20041;-72
2021/06/23 06:12:39;;;;;;;2.95;1.73;;;;;;;23.25;68.51;98876.56;4990151;28;20488;-71
2021/06/23 06:15:05;;;;;;;2.65;1.80;;;;;;;23.34;67.67;98887.81;4989611;28;20042;-67
2021/06/23 06:17:31;;;;;;;1.90;1.40;;;;;;;23.53;67.20;98871.44;4991419;28;20042;-71
2021/06/23 06:19:56;;;;;;;4.05;1.50;;;;;;;23.72;64.82;98894.53;4992209;28;20042;-73
2021/06/23 06:22:21;;;;;;;1.88;1.35;;;;;;;23.58;66.77;98893.50;4989878;28;20025;-66
2021/06/23 06:24:46;;;;;;;7.13;1.65;;;;;;;23.63;66.89;98887.91;4990372;28;20112;-69
2021/06/23 06:27:12;;;;;;;1.90;1.40;;;;;;;23.97;65.08;98900.94;4990393;28;20158;-71
2021/06/23 06:29:37;;;;;;;3.17;1.70;;;;;;;23.68;64.59;98904.44;4991757;28;20030;-68
2021/06/23 06:32:03;;;;;;;1.67;1.33;;;;;;;23.60;65.11;98911.41;5000583;28;20018;-71
2021/06/23 06:34:28;;;;;;;2.58;1.30;;;;;;;23.53;63.58;98901.81;4990645;28;20058;-75
2021/06/23 06:36:54;;;;;;;2.05;0.88;;;;;;;23.76;63.99;98906.66;4988968;28;20033;-75
2021/06/23 06:39:19;;;;;;;1.50;1.00;;;;;;;23.58;62.73;98888.78;4984458;28;20023;-66
2021/06/23 06:41:44;;;;;;;3.25;1.38;;;;;;;23.40;64.45;98893.03;4984281;28;20510;-64
2021/06/23 06:44:10;;;;;;;4.30;1.48;;;;;;;23.70;64.78;98913.28;4990086;28;20034;-65
2021/06/23 06:46:36;;;;;;;3.10;1.55;;;;;;;23.52;65.68;98908.44;4990551;28;20080;-71
2021/06/23 06:49:03;;;;;;;3.65;1.10;;;;;;;23.54;65.63;98911.75;4991400;28;20029;-74
2021/06/23 06:51:28;;;;;;;2.78;1.40;;;;;;;23.38;65.98;98909.06;4991004;28;20026;-66
2021/06/23 06:53:53;;;;;;;5.00;1.13;;;;;;;23.52;65.76;98906.50;4987285;28;20399;-65
2021/06/23 06:56:19;;;;;;;2.53;1.50;;;;;;;23.63;64.90;98916.38;4990494;28;20038;-66
2021/06/23 06:58:44;;;;;;;1.63;1.27;;;;;;;23.94;64.08;98918.94;4990263;28;20045;-65
2021/06/23 07:01:09;;;;;;;2.13;1.20;;;;;;;24.18;63.18;98918.19;4990281;28;20026;-66
2021/06/23 07:03:34;;;;;;;1.70;0.82;;;;;;;24.54;60.91;98915.13;4989703;28;20490;-65
2021/06/23 07:06:00;;;;;;;5.28;1.30;;;;;;;24.67;59.48;98915.25;4987393;28;20081;-65
2021/06/23 07:08:25;;;;;;;1.80;0.90;;;;;;;24.63;58.36;98918.91;4987286;28;20730;-65
2021/06/23 07:10:51;;;;;;;1.10;0.70;;;;;;;24.75;58.59;98918.50;4990493;28;20018;-65
2021/06/23 07:13:16;;;;;;;1.00;0.60;;;;;;;26.16;54.90;98910.47;4988800;28;20526;-65
2021/06/23 07:15:42;;;;;;;1.38;1.02;;;;;;;26.02;55.22;98916.78;4989030;28;20110;-65
2021/06/23 07:18:07;;;;;;;3.25;1.27;;;;;;;26.05;54.83;98914.53;4990059;28;20038;-65
2021/06/23 07:20:32;;;;;;;1.05;0.93;;;;;;;28.27;50.29;98913.25;4989949;28;20113;-65
2021/06/23 07:22:58;;;;;;;8.63;1.50;;;;;;;29.42;47.47;98909.53;4987429;28;20034;-67
2021/06/23 07:25:23;;;;;;;5.47;1.55;;;;;;;29.59;48.29;98911.50;4987433;28;20041;-67
2021/06/23 07:27:49;;;;;;;6.00;1.30;;;;;;;28.84;47.83;98919.00;4985574;28;20019;-66
2021/06/23 07:30:15;;;;;;;3.88;1.30;;;;;;;28.47;49.74;98915.53;4985912;28;20164;-73
2021/06/23 07:37:57;;;;;;;4.18;1.60;;;;;;;28.45;49.38;98900.31;4972446;28;20567;-67
2021/06/23 07:40:40;;;;;;;4.35;1.75;;;;;;;30.07;46.73;98910.53;4989332;28;20046;-67
2021/06/23 07:43:05;;;;;;;4.82;1.60;;;;;;;32.27;43.38;98905.09;4989016;28;20157;-66
2021/06/23 07:45:31;;;;;;;2.47;1.42;;;;;;;33.94;38.63;98896.94;4989647;28;20472;-66
2021/06/23 07:47:56;;;;;;;2.65;1.25;;;;;;;34.05;37.85;98902.88;4991097;28;20155;-69
2021/06/23 07:50:21;;;;;;;1.60;1.20;;;;;;;32.97;40.65;98902.34;4984789;28;20026;-68
2021/06/23 07:53:06;;;;;;;2.30;1.17;;;;;;;30.63;44.93;98893.84;4984249;28;20022;-65
2021/06/23 08:09:25;;;;;;;1.65;1.10;;;;;;;25.79;57.51;98901.06;4986350;28;20041;-70
2021/06/23 08:11:49;;;;;;;1.58;1.30;;;;;;;29.28;48.76;98894.91;4985916;28;20396;-66
2021/06/23 08:14:15;;;;;;;1.30;1.10;;;;;;;30.93;45.67;98896.72;4993472;28;20022;-67
2021/06/23 08:16:40;;;;;;;4.85;1.10;;;;;;;32.18;42.52;98870.78;4988042;28;20108;-67
2021/06/23 08:19:05;;;;;;;2.53;1.20;;;;;;;31.92;41.42;98892.59;4989741;28;20049;-65
2021/06/23 08:21:31;;;;;;;1.30;1.20;;;;;;;33.56;38.80;98886.19;4989150;28;20083;-66
2021/06/23 08:23:56;;;;;;;2.08;0.95;;;;;;;34.50;38.66;98889.66;4988216;28;20049;-65
2021/06/23 08:26:21;;;;;;;2.67;1.23;;;;;;;34.61;36.87;98883.19;4989285;28;20047;-65
2021/06/23 08:28:47;;;;;;;2.50;0.77;;;;;;;33.05;40.70;98899.81;4989759;28;20030;-67
2021/06/23 08:31:13;;;;;;;4.10;0.95;;;;;;;34.05;39.24;98900.06;4989041;28;20030;-67
2021/06/23 08:33:38;;;;;;;1.20;0.90;;;;;;;35.08;35.84;98889.97;4988332;28;20061;-67
2021/06/23 08:36:04;;;;;;;3.08;1.17;;;;;;;33.21;39.26;98894.31;4988974;28;20037;-65
2021/06/23 08:38:30;;;;;;;2.47;0.93;;;;;;;30.43;45.16;98894.56;4988958;28;20022;-65
2021/06/23 08:40:55;;;;;;;2.90;1.10;;;;;;;29.01;48.59;98890.38;4989343;28;20447;-65
2021/06/23 08:43:21;;;;;;;1.75;1.10;;;;;;;28.92;48.93;98897.88;4988906;28;20488;-65
2021/06/23 08:45:47;;;;;;;2.30;1.40;;;;;;;31.49;43.88;98880.59;4988081;28;20030;-65
2021/06/23 08:48:13;;;;;;;3.78;1.25;;;;;;;31.55;41.83;98886.81;4988398;28;20353;-65
2021/06/23 08:50:39;;;;;;;2.47;1.33;;;;;;;33.21;40.76;98885.88;4988823;28;20058;-65
2021/06/23 08:53:05;;;;;;;1.73;0.90;;;;;;;35.92;35.85;98886.69;4987375;28;20113;-66
2021/06/23 08:55:31;;;;;;;3.50;1.23;;;;;;;37.23;32.53;98888.66;4988173;28;20059;-66
2021/06/23 08:57:58;;;;;;;2.40;1.02;;;;;;;36.55;32.92;98888.34;4988371;28;20121;-66
2021/06/23 09:00:24;;;;;;;1.55;1.00;;;;;;;38.64;31.28;98886.41;4988835;28;20125;-66
2021/06/23 09:02:50;;;;;;;1.73;1.00;;;;;;;37.59;32.42;98860.97;4988861;28;20028;-66
2021/06/23 09:05:17;;;;;;;2.63;1.00;;;;;;;39.52;30.32;98879.03;4986791;28;20058;-66
2021/06/23 09:07:44;;;;;;;1.23;0.80;;;;;;;38.88;30.81;98871.69;4970539;28;20035;-66
2021/06/23 09:10:18;;;;;;;3.08;1.20;;;;;;;35.81;33.87;98874.34;4972040;28;20062;-66
2021/06/23 09:13:03;;;;;;;1.50;0.90;;;;;;;34.71;37.26;98872.56;5002889;28;20057;-66
2021/06/23 09:15:43;;;;;;;4.15;1.02;;;;;;;36.54;34.55;98866.13;4982107;28;20030;-66
2021/06/23 09:18:10;;;;;;;3.08;1.45;;;;;;;38.14;31.76;98859.22;4987584;28;20117;-65
2021/06/23 09:20:36;;;;;;;1.88;1.02;;;;;;;39.01;29.29;98849.56;4986590;28;20085;-67
2021/06/23 09:23:02;;;;;;;2.17;1.20;;;;;;;40.90;27.75;98840.13;4983158;28;20038;-69
2021/06/23 09:25:31;;;;;;;3.47;0.70;;;;;;;38.76;29.15;98843.69;4987012;28;20045;-69
2021/06/23 09:27:59;;;;;;;3.20;0.77;;;;;;;37.82;30.71;98849.56;4986898;28;20037;-69
2021/06/23 09:30:31;;;;;;;1.58;0.82;;;;;;;35.96;32.81;98865.03;4987481;28;20028;-70
2021/06/23 09:33:18;;;;;;;1.70;0.90;;;;;;;35.81;32.64;98857.47;4987415;28;20097;-71
2021/06/23 09:35:58;;;;;;;2.08;0.80;;;;;;;37.28;31.08;98866.59;4990155;28;20034;-70
2021/06/23 09:38:40;;;;;;;0.65;0.63;;;;;;;36.57;32.25;98845.66;4991028;28;20030;-69
2021/06/23 09:41:17;;;;;;;1.15;0.70;;;;;;;35.71;33.94;98858.06;4988368;28;20479;-70
2021/06/23 09:43:43;;;;;;;1.27;0.82;;;;;;;34.98;33.91;98853.94;4984948;28;20033;-74
2021/06/23 09:46:23;;;;;;;2.42;0.70;;;;;;;36.29;32.17;98858.03;4989313;28;20038;-67
2021/06/23 09:48:51;;;;;;;1.85;0.70;;;;;;;37.95;30.15;98859.41;5002706;28;20030;-69
2021/06/23 09:51:21;;;;;;;2.53;0.70;;;;;;;38.56;29.68;98851.59;4981896;28;20038;-69
2021/06/23 09:53:47;;;;;;;0.60;0.50;;;;;;;38.43;29.26;98855.94;4989545;28;20034;-68
2021/06/23 09:56:30;;;;;;;1.75;0.77;;;;;;;39.16;26.69;98847.66;4991412;28;20065;-66
2021/06/23 09:58:57;;;;;;;0.77;0.50;;;;;;;38.66;27.78;98838.78;4987281;28;20045;-67
2021/06/23 10:01:24;;;;;;;1.95;0.68;;;;;;;37.10;29.42;98845.75;4990679;28;20030;-66
2021/06/23 10:04:00;;;;;;;0.97;0.80;;;;;;;37.26;29.03;98842.78;4993185;28;20027;-66
2021/06/23 10:06:28;;;;;;;1.60;0.50;;;;;;;38.77;26.56;98837.63;4989204;28;20022;-66
2021/06/23 10:09:21;;;;;;;0.82;0.60;;;;;;;38.39;27.26;98838.91;4991695;28;20179;-66
2021/06/23 10:11:49;;;;;;;0.65;0.50;;;;;;;38.15;28.71;98826.16;4991911;28;20042;-66
2021/06/23 10:14:15;;;;;;;0.82;0.60;;;;;;;39.29;27.11;98837.63;4990835;28;20122;-67
2021/06/23 10:16:42;;;;;;;0.88;0.50;;;;;;;37.49;29.67;98826.56;4990428;28;20072;-67
2021/06/23 10:19:08;;;;;;;1.90;0.70;;;;;;;33.93;34.22;98821.50;4992100;28;20600;-67
2021/06/23 10:21:36;;;;;;;2.60;0.60;;;;;;;35.30;33.16;98835.06;4989669;28;20500;-67
2021/06/23 10:24:04;;;;;;;2.53;0.40;;;;;;;35.37;31.57;98831.56;4989814;28;20030;-68
2021/06/23 10:26:31;;;;;;;0.65;0.60;;;;;;;36.50;29.97;98835.06;4991215;28;20030;-69
2021/06/23 10:28:58;;;;;;;1.02;0.60;;;;;;;38.02;30.77;98825.63;4991896;28;20038;-67
2021/06/23 10:31:26;;;;;;;0.77;0.40;;;;;;;38.98;27.60;98824.88;4992600;28;20026;-67
2021/06/23 10:33:52;;;;;;;0.85;0.40;;;;;;;38.65;26.78;98820.19;4991894;28;20038;-68
2021/06/23 10:36:19;;;;;;;1.80;0.30;;;;;;;39.49;26.53;98818.34;4991706;28;20121;-68
2021/06/23 10:38:47;;;;;;;1.77;0.20;;;;;;;39.47;23.87;98809.44;4992472;28;20081;-68
2021/06/23 10:41:13;;;;;;;0.80;0.40;;;;;;;39.48;23.76;98810.25;4991883;28;20042;-67
2021/06/23 10:43:40;;;;;;;0.20;0.20;;;;;;;37.56;25.85;98796.81;4990989;28;20030;-67
2021/06/23 10:46:05;;;;;;;0.73;0.40;;;;;;;34.85;29.38;98811.09;4989620;28;20113;-68
2021/06/23 10:48:54;;;;;;;2.78;0.50;;;;;;;34.78;30.60;98808.13;4990190;28;20113;-72
2021/06/23 10:51:25;;;;;;;0.70;0.40;;;;;;;36.91;27.61;98806.34;4981417;28;20101;-67
2021/06/23 10:53:50;;;;;;;1.00;0.35;;;;;;;35.18;28.80;98809.88;4989290;28;20034;-69
2021/06/23 10:56:43;;;;;;;0.30;0.30;;;;;;;33.04;32.29;98803.69;4991548;28;20050;-66
2021/06/23 10:59:31;;;;;;;1.52;0.43;;;;;;;31.88;34.92;98808.50;4988038;28;20030;-69
2021/06/23 11:02:09;;;;;;;1.30;0.40;;;;;;;30.41;36.13;98815.91;4988939;28;20084;-66
2021/06/23 11:05:14;;;;;;;1.40;0.52;;;;;;;31.74;36.33;98808.00;4990510;28;20026;-70
2021/06/23 11:07:55;;;;;;;0.68;0.50;;;;;;;34.99;33.72;98805.81;4969438;28;20058;-67
2021/06/23 11:10:34;;;;;;;1.35;0.40;;;;;;;36.83;30.21;98789.31;4968207;28;20027;-67
2021/06/23 11:13:04;;;;;;;0.93;0.50;;;;;;;38.30;27.79;98801.66;4969930;28;20059;-67
2021/06/23 11:15:35;;;;;;;0.32;0.32;;;;;;;36.34;28.81;98809.84;4973258;28;20058;-66
2021/06/23 11:18:26;;;;;;;0.85;0.32;;;;;;;37.15;27.61;98805.91;4990271;28;20564;-66
2021/06/23 11:21:23;;;;;;;0.82;0.40;;;;;;;37.84;26.77;98805.63;4989516;28;20046;-66
2021/06/23 11:24:01;;;;;;;0.80;0.20;;;;;;;39.82;26.43;98803.09;4987799;28;20042;-68
2021/06/23 11:26:26;;;;;;;2.90;0.40;;;;;;;39.86;25.21;98795.44;4990332;28;20030;-67
2021/06/23 11:28:51;;;;;;;0.40;0.40;;;;;;;40.57;24.66;98812.97;4989889;28;20173;-67
2021/06/23 11:31:17;;;;;;;1.10;0.40;;;;;;;37.16;27.25;98798.28;4988870;28;20289;-67
2021/06/23 11:33:45;;;;;;;2.25;0.32;;;;;;;34.91;31.13;98792.75;4989454;28;20038;-67
2021/06/23 11:36:14;;;;;;;0.85;0.40;;;;;;;35.17;31.38;98797.00;4990186;28;20037;-66
2021/06/23 11:38:40;;;;;;;0.60;0.47;;;;;;;36.47;28.59;98787.88;4990012;28;20022;-66
2021/06/23 11:41:07;;;;;;;0.38;0.38;;;;;;;37.72;26.99;98801.03;4989155;28;20413;-65
2021/06/23 11:43:33;;;;;;;0.70;0.40;;;;;;;39.06;25.57;98809.59;4990309;28;20026;-67
2021/06/23 11:45:59;;;;;;;0.52;0.30;;;;;;;36.98;27.73;98789.53;4987498;28;20030;-69
2021/06/23 11:48:24;;;;;;;0.30;0.30;;;;;;;36.48;28.99;98812.09;4984899;28;20022;-67
2021/06/23 11:50:51;;;;;;;1.38;0.50;;;;;;;36.98;27.13;98812.91;4984773;28;20034;-66
2021/06/23 11:53:19;;;;;;;0.63;0.45;;;;;;;34.28;29.72;98804.03;4987926;28;20084;-67